sensor_id;sensor_type;location;lat;lon;timestamp;temperature;humidity
46898;DHT22;32646;50.958;6.258;2022-09-02T00:00:55;18.90;83.70
46898;DHT22;32646;50.958;6.258;2022-09-02T00:03:22;18.90;83.40
46898;DHT22;32646;50.958;6.258;2022-09-02T00:05:49;18.90;83.40
46898;DHT22;32646;50.958;6.258;2022-09-02T00:08:16;18.80;83.60
46898;DHT22;32646;50.958;6.258;2022-09-02T00:10:44;18.70;83.70
46898;DHT22;32646;50.958;6.258;2022-09-02T00:13:13;18.70;83.50
46898;DHT22;32646;50.958;6.258;2022-09-02T00:15:41;18.70;83.80
46898;DHT22;32646;50.958;6.258;2022-09-02T00:18:08;18.80;83.50
46898;DHT22;32646;50.958;6.258;2022-09-02T00:20:44;18.70;83.40
46898;DHT22;32646;50.958;6.258;2022-09-02T00:23:12;18.70;83.90
46898;DHT22;32646;50.958;6.258;2022-09-02T00:25:39;18.70;83.50
46898;DHT22;32646;50.958;6.258;2022-09-02T00:28:06;18.60;83.90
46898;DHT22;32646;50.958;6.258;2022-09-02T00:30:33;18.60;83.50
46898;DHT22;32646;50.958;6.258;2022-09-02T00:33:00;18.60;83.70
46898;DHT22;32646;50.958;6.258;2022-09-02T00:35:27;18.60;84.30
46898;DHT22;32646;50.958;6.258;2022-09-02T00:37:54;18.60;83.70
46898;DHT22;32646;50.958;6.258;2022-09-02T00:40:21;18.60;84.00
46898;DHT22;32646;50.958;6.258;2022-09-02T00:42:49;18.50;84.10
46898;DHT22;32646;50.958;6.258;2022-09-02T00:45:16;18.60;83.90
46898;DHT22;32646;50.958;6.258;2022-09-02T00:47:44;18.50;84.00
46898;DHT22;32646;50.958;6.258;2022-09-02T00:50:13;18.60;83.30
46898;DHT22;32646;50.958;6.258;2022-09-02T00:52:46;18.60;83.70
46898;DHT22;32646;50.958;6.258;2022-09-02T00:55:20;18.50;84.20
46898;DHT22;32646;50.958;6.258;2022-09-02T00:57:50;18.50;84.20
46898;DHT22;32646;50.958;6.258;2022-09-02T01:00:21;18.40;84.40
46898;DHT22;32646;50.958;6.258;2022-09-02T01:02:53;18.40;84.50
46898;DHT22;32646;50.958;6.258;2022-09-02T01:05:23;18.40;84.20
46898;DHT22;32646;50.958;6.258;2022-09-02T01:07:51;18.40;84.40
46898;DHT22;32646;50.958;6.258;2022-09-02T01:10:25;18.40;84.40
46898;DHT22;32646;50.958;6.258;2022-09-02T01:12:57;18.30;84.50
46898;DHT22;32646;50.958;6.258;2022-09-02T01:15:25;18.30;84.90
46898;DHT22;32646;50.958;6.258;2022-09-02T01:17:52;18.20;85.40
46898;DHT22;32646;50.958;6.258;2022-09-02T01:20:24;18.20;85.00
46898;DHT22;32646;50.958;6.258;2022-09-02T01:22:52;18.20;85.20
46898;DHT22;32646;50.958;6.258;2022-09-02T01:25:30;18.20;85.50
46898;DHT22;32646;50.958;6.258;2022-09-02T01:28:16;18.10;85.60
46898;DHT22;32646;50.958;6.258;2022-09-02T01:30:50;18.10;86.90
46898;DHT22;32646;50.958;6.258;2022-09-02T01:33:18;18.10;86.10
46898;DHT22;32646;50.958;6.258;2022-09-02T01:35:47;18.00;85.80
46898;DHT22;32646;50.958;6.258;2022-09-02T01:38:14;18.00;86.20
46898;DHT22;32646;50.958;6.258;2022-09-02T01:40:41;18.00;85.90
46898;DHT22;32646;50.958;6.258;2022-09-02T01:43:14;18.00;85.70
46898;DHT22;32646;50.958;6.258;2022-09-02T01:45:44;18.00;85.70
46898;DHT22;32646;50.958;6.258;2022-09-02T01:48:11;18.00;85.90
46898;DHT22;32646;50.958;6.258;2022-09-02T01:50:42;18.10;85.90
46898;DHT22;32646;50.958;6.258;2022-09-02T01:53:13;18.00;85.70
46898;DHT22;32646;50.958;6.258;2022-09-02T01:55:39;18.00;85.80
46898;DHT22;32646;50.958;6.258;2022-09-02T01:58:06;17.90;86.90
46898;DHT22;32646;50.958;6.258;2022-09-02T02:00:33;17.80;87.20
46898;DHT22;32646;50.958;6.258;2022-09-02T02:03:00;17.80;87.00
46898;DHT22;32646;50.958;6.258;2022-09-02T02:05:28;17.70;87.30
46898;DHT22;32646;50.958;6.258;2022-09-02T02:07:55;17.70;88.00
46898;DHT22;32646;50.958;6.258;2022-09-02T02:10:22;17.60;88.20
46898;DHT22;32646;50.958;6.258;2022-09-02T02:12:49;17.60;87.60
46898;DHT22;32646;50.958;6.258;2022-09-02T02:15:18;17.60;87.50
46898;DHT22;32646;50.958;6.258;2022-09-02T02:17:45;17.60;87.80
46898;DHT22;32646;50.958;6.258;2022-09-02T02:20:13;17.60;88.00
46898;DHT22;32646;50.958;6.258;2022-09-02T02:22:41;17.60;88.90
46898;DHT22;32646;50.958;6.258;2022-09-02T02:25:08;17.50;88.10
46898;DHT22;32646;50.958;6.258;2022-09-02T02:27:36;17.50;88.00
46898;DHT22;32646;50.958;6.258;2022-09-02T02:30:05;17.50;88.30
46898;DHT22;32646;50.958;6.258;2022-09-02T02:32:32;17.50;88.30
46898;DHT22;32646;50.958;6.258;2022-09-02T02:34:58;17.60;87.90
46898;DHT22;32646;50.958;6.258;2022-09-02T02:37:25;17.60;87.90
46898;DHT22;32646;50.958;6.258;2022-09-02T02:39:52;17.70;88.00
46898;DHT22;32646;50.958;6.258;2022-09-02T02:42:18;17.70;87.80
46898;DHT22;32646;50.958;6.258;2022-09-02T02:44:45;17.80;87.60
46898;DHT22;32646;50.958;6.258;2022-09-02T02:47:12;17.80;87.30
46898;DHT22;32646;50.958;6.258;2022-09-02T02:49:40;17.80;87.50
46898;DHT22;32646;50.958;6.258;2022-09-02T02:52:07;17.80;87.40
46898;DHT22;32646;50.958;6.258;2022-09-02T02:54:34;17.80;87.30
46898;DHT22;32646;50.958;6.258;2022-09-02T02:57:02;17.80;87.70
46898;DHT22;32646;50.958;6.258;2022-09-02T02:59:29;17.80;88.10
46898;DHT22;32646;50.958;6.258;2022-09-02T03:01:55;17.80;88.20
46898;DHT22;32646;50.958;6.258;2022-09-02T03:04:22;17.80;87.90
46898;DHT22;32646;50.958;6.258;2022-09-02T03:06:49;17.80;87.90
46898;DHT22;32646;50.958;6.258;2022-09-02T03:09:16;17.80;88.30
46898;DHT22;32646;50.958;6.258;2022-09-02T03:11:43;17.70;88.30
46898;DHT22;32646;50.958;6.258;2022-09-02T03:14:09;17.80;87.90
46898;DHT22;32646;50.958;6.258;2022-09-02T03:16:36;17.70;88.00
46898;DHT22;32646;50.958;6.258;2022-09-02T03:19:03;17.70;88.00
46898;DHT22;32646;50.958;6.258;2022-09-02T03:21:30;17.80;88.10
46898;DHT22;32646;50.958;6.258;2022-09-02T03:24:05;17.70;88.10
46898;DHT22;32646;50.958;6.258;2022-09-02T03:26:31;17.70;87.80
46898;DHT22;32646;50.958;6.258;2022-09-02T03:28:58;17.70;88.30
46898;DHT22;32646;50.958;6.258;2022-09-02T03:31:26;17.70;88.20
46898;DHT22;32646;50.958;6.258;2022-09-02T03:33:53;17.70;88.30
46898;DHT22;32646;50.958;6.258;2022-09-02T03:36:27;17.70;88.70
46898;DHT22;32646;50.958;6.258;2022-09-02T03:38:55;17.70;89.10
46898;DHT22;32646;50.958;6.258;2022-09-02T03:41:22;17.70;89.30
46898;DHT22;32646;50.958;6.258;2022-09-02T03:43:49;17.60;89.80
46898;DHT22;32646;50.958;6.258;2022-09-02T03:46:16;17.60;89.90
46898;DHT22;32646;50.958;6.258;2022-09-02T03:48:44;17.60;90.10
46898;DHT22;32646;50.958;6.258;2022-09-02T03:51:10;17.50;90.20
46898;DHT22;32646;50.958;6.258;2022-09-02T03:53:37;17.40;90.30
46898;DHT22;32646;50.958;6.258;2022-09-02T03:56:06;17.30;90.30
46898;DHT22;32646;50.958;6.258;2022-09-02T03:58:33;17.30;90.50
46898;DHT22;32646;50.958;6.258;2022-09-02T04:01:00;17.30;90.50
46898;DHT22;32646;50.958;6.258;2022-09-02T04:03:27;17.30;90.60
46898;DHT22;32646;50.958;6.258;2022-09-02T04:05:54;17.30;90.60
46898;DHT22;32646;50.958;6.258;2022-09-02T04:08:20;17.20;90.60
46898;DHT22;32646;50.958;6.258;2022-09-02T04:10:47;17.20;90.60
46898;DHT22;32646;50.958;6.258;2022-09-02T04:13:14;17.20;90.70
46898;DHT22;32646;50.958;6.258;2022-09-02T04:15:42;17.20;90.70
46898;DHT22;32646;50.958;6.258;2022-09-02T04:18:09;17.20;90.70
46898;DHT22;32646;50.958;6.258;2022-09-02T04:20:40;17.20;90.60
46898;DHT22;32646;50.958;6.258;2022-09-02T04:23:07;17.20;90.60
46898;DHT22;32646;50.958;6.258;2022-09-02T04:25:41;17.20;90.40
46898;DHT22;32646;50.958;6.258;2022-09-02T04:28:09;17.20;90.50
46898;DHT22;32646;50.958;6.258;2022-09-02T04:30:39;17.30;90.40
46898;DHT22;32646;50.958;6.258;2022-09-02T04:33:06;17.30;90.30
46898;DHT22;32646;50.958;6.258;2022-09-02T04:35:32;17.30;90.40
46898;DHT22;32646;50.958;6.258;2022-09-02T04:37:59;17.20;90.40
46898;DHT22;32646;50.958;6.258;2022-09-02T04:40:26;17.20;90.60
46898;DHT22;32646;50.958;6.258;2022-09-02T04:42:52;17.20;90.50
46898;DHT22;32646;50.958;6.258;2022-09-02T04:45:21;17.20;90.60
46898;DHT22;32646;50.958;6.258;2022-09-02T04:47:53;17.20;90.90
46898;DHT22;32646;50.958;6.258;2022-09-02T04:50:19;17.20;91.00
46898;DHT22;32646;50.958;6.258;2022-09-02T04:52:46;17.20;90.70
46898;DHT22;32646;50.958;6.258;2022-09-02T04:55:13;17.20;90.80
46898;DHT22;32646;50.958;6.258;2022-09-02T04:57:40;17.20;90.60
46898;DHT22;32646;50.958;6.258;2022-09-02T05:00:08;17.20;90.60
46898;DHT22;32646;50.958;6.258;2022-09-02T05:02:35;17.20;90.80
46898;DHT22;32646;50.958;6.258;2022-09-02T05:05:02;17.10;90.70
46898;DHT22;32646;50.958;6.258;2022-09-02T05:07:29;17.10;90.80
46898;DHT22;32646;50.958;6.258;2022-09-02T05:09:57;17.10;90.90
46898;DHT22;32646;50.958;6.258;2022-09-02T05:12:25;17.20;90.70
46898;DHT22;32646;50.958;6.258;2022-09-02T05:14:51;17.20;90.40
46898;DHT22;32646;50.958;6.258;2022-09-02T05:17:18;17.30;90.20
46898;DHT22;32646;50.958;6.258;2022-09-02T05:19:44;17.30;90.20
46898;DHT22;32646;50.958;6.258;2022-09-02T05:22:11;17.40;90.30
46898;DHT22;32646;50.958;6.258;2022-09-02T05:24:37;17.40;90.20
46898;DHT22;32646;50.958;6.258;2022-09-02T05:27:04;17.40;90.10
46898;DHT22;32646;50.958;6.258;2022-09-02T05:29:30;17.40;90.10
46898;DHT22;32646;50.958;6.258;2022-09-02T05:31:57;17.50;90.20
46898;DHT22;32646;50.958;6.258;2022-09-02T05:34:24;17.50;90.20
46898;DHT22;32646;50.958;6.258;2022-09-02T05:36:50;17.50;90.10
46898;DHT22;32646;50.958;6.258;2022-09-02T05:39:17;17.60;90.00
46898;DHT22;32646;50.958;6.258;2022-09-02T05:41:43;17.60;90.00
46898;DHT22;32646;50.958;6.258;2022-09-02T05:44:10;17.60;90.00
46898;DHT22;32646;50.958;6.258;2022-09-02T05:46:37;17.60;89.70
46898;DHT22;32646;50.958;6.258;2022-09-02T05:49:04;17.60;89.80
46898;DHT22;32646;50.958;6.258;2022-09-02T05:51:32;17.60;89.80
46898;DHT22;32646;50.958;6.258;2022-09-02T05:54:00;17.60;89.80
46898;DHT22;32646;50.958;6.258;2022-09-02T05:56:27;17.60;90.00
46898;DHT22;32646;50.958;6.258;2022-09-02T05:58:55;17.50;90.00
46898;DHT22;32646;50.958;6.258;2022-09-02T06:01:23;17.60;90.20
46898;DHT22;32646;50.958;6.258;2022-09-02T06:03:50;17.50;90.30
46898;DHT22;32646;50.958;6.258;2022-09-02T06:06:17;17.50;90.10
46898;DHT22;32646;50.958;6.258;2022-09-02T06:08:44;17.50;90.20
46898;DHT22;32646;50.958;6.258;2022-09-02T06:11:11;17.70;90.30
46898;DHT22;32646;50.958;6.258;2022-09-02T06:13:40;17.60;90.40
46898;DHT22;32646;50.958;6.258;2022-09-02T06:16:08;17.70;90.00
46898;DHT22;32646;50.958;6.258;2022-09-02T06:18:35;17.80;90.30
46898;DHT22;32646;50.958;6.258;2022-09-02T06:21:04;17.80;90.40
46898;DHT22;32646;50.958;6.258;2022-09-02T06:23:32;17.80;90.10
46898;DHT22;32646;50.958;6.258;2022-09-02T06:25:59;17.90;90.20
46898;DHT22;32646;50.958;6.258;2022-09-02T06:28:26;17.80;90.10
46898;DHT22;32646;50.958;6.258;2022-09-02T06:30:52;17.90;90.10
46898;DHT22;32646;50.958;6.258;2022-09-02T06:33:19;17.90;90.20
46898;DHT22;32646;50.958;6.258;2022-09-02T06:35:46;17.90;90.00
46898;DHT22;32646;50.958;6.258;2022-09-02T06:38:13;18.00;90.00
46898;DHT22;32646;50.958;6.258;2022-09-02T06:40:51;18.10;90.10
46898;DHT22;32646;50.958;6.258;2022-09-02T06:43:18;18.10;89.60
46898;DHT22;32646;50.958;6.258;2022-09-02T06:45:44;18.30;89.50
46898;DHT22;32646;50.958;6.258;2022-09-02T06:48:12;18.30;89.90
46898;DHT22;32646;50.958;6.258;2022-09-02T06:50:44;18.40;89.50
46898;DHT22;32646;50.958;6.258;2022-09-02T06:53:12;18.50;89.30
46898;DHT22;32646;50.958;6.258;2022-09-02T06:55:41;18.60;89.00
46898;DHT22;32646;50.958;6.258;2022-09-02T06:58:08;18.70;90.00
46898;DHT22;32646;50.958;6.258;2022-09-02T07:00:35;18.70;89.90
46898;DHT22;32646;50.958;6.258;2022-09-02T07:03:03;18.80;89.70
46898;DHT22;32646;50.958;6.258;2022-09-02T07:05:30;19.00;88.30
46898;DHT22;32646;50.958;6.258;2022-09-02T07:07:56;19.10;87.80
46898;DHT22;32646;50.958;6.258;2022-09-02T07:10:23;19.20;87.90
46898;DHT22;32646;50.958;6.258;2022-09-02T07:12:50;19.30;87.90
46898;DHT22;32646;50.958;6.258;2022-09-02T07:15:17;19.30;87.10
46898;DHT22;32646;50.958;6.258;2022-09-02T07:17:43;19.30;86.30
46898;DHT22;32646;50.958;6.258;2022-09-02T07:20:10;19.40;87.20
46898;DHT22;32646;50.958;6.258;2022-09-02T07:22:38;19.50;86.70
46898;DHT22;32646;50.958;6.258;2022-09-02T07:25:05;19.50;87.90
46898;DHT22;32646;50.958;6.258;2022-09-02T07:27:33;19.60;87.40
46898;DHT22;32646;50.958;6.258;2022-09-02T07:30:00;19.60;86.20
46898;DHT22;32646;50.958;6.258;2022-09-02T07:32:26;19.60;86.20
46898;DHT22;32646;50.958;6.258;2022-09-02T07:34:53;19.60;85.90
46898;DHT22;32646;50.958;6.258;2022-09-02T07:37:20;19.60;86.60
46898;DHT22;32646;50.958;6.258;2022-09-02T07:39:49;19.70;86.50
46898;DHT22;32646;50.958;6.258;2022-09-02T07:42:16;19.70;87.20
46898;DHT22;32646;50.958;6.258;2022-09-02T07:44:42;19.90;87.50
46898;DHT22;32646;50.958;6.258;2022-09-02T07:47:09;20.00;86.70
46898;DHT22;32646;50.958;6.258;2022-09-02T07:49:37;20.20;87.00
46898;DHT22;32646;50.958;6.258;2022-09-02T07:52:23;20.40;86.60
46898;DHT22;32646;50.958;6.258;2022-09-02T07:54:50;20.50;85.40
46898;DHT22;32646;50.958;6.258;2022-09-02T07:57:18;20.60;84.50
46898;DHT22;32646;50.958;6.258;2022-09-02T07:59:45;20.70;84.40
46898;DHT22;32646;50.958;6.258;2022-09-02T08:02:11;20.90;85.20
46898;DHT22;32646;50.958;6.258;2022-09-02T08:04:38;21.30;84.90
46898;DHT22;32646;50.958;6.258;2022-09-02T08:07:05;21.70;84.60
46898;DHT22;32646;50.958;6.258;2022-09-02T08:09:31;22.30;82.00
46898;DHT22;32646;50.958;6.258;2022-09-02T08:11:58;23.20;81.80
46898;DHT22;32646;50.958;6.258;2022-09-02T08:14:26;23.80;79.60
46898;DHT22;32646;50.958;6.258;2022-09-02T08:16:56;24.20;77.80
46898;DHT22;32646;50.958;6.258;2022-09-02T08:19:24;24.60;76.20
46898;DHT22;32646;50.958;6.258;2022-09-02T08:21:50;25.00;76.80
46898;DHT22;32646;50.958;6.258;2022-09-02T08:24:17;25.10;74.60
46898;DHT22;32646;50.958;6.258;2022-09-02T08:26:43;25.10;75.70
46898;DHT22;32646;50.958;6.258;2022-09-02T08:29:10;25.40;73.90
46898;DHT22;32646;50.958;6.258;2022-09-02T08:31:37;25.40;74.70
46898;DHT22;32646;50.958;6.258;2022-09-02T08:34:04;25.40;73.70
46898;DHT22;32646;50.958;6.258;2022-09-02T08:36:31;25.80;73.90
46898;DHT22;32646;50.958;6.258;2022-09-02T08:39:00;25.50;73.90
46898;DHT22;32646;50.958;6.258;2022-09-02T08:41:36;25.70;73.70
46898;DHT22;32646;50.958;6.258;2022-09-02T08:44:05;25.30;74.30
46898;DHT22;32646;50.958;6.258;2022-09-02T08:46:32;25.40;75.80
46898;DHT22;32646;50.958;6.258;2022-09-02T08:49:03;25.70;73.50
46898;DHT22;32646;50.958;6.258;2022-09-02T08:51:31;25.60;72.80
46898;DHT22;32646;50.958;6.258;2022-09-02T08:54:21;25.40;73.80
46898;DHT22;32646;50.958;6.258;2022-09-02T08:56:50;25.90;75.30
46898;DHT22;32646;50.958;6.258;2022-09-02T08:59:20;26.40;73.30
46898;DHT22;32646;50.958;6.258;2022-09-02T09:01:49;26.10;72.40
46898;DHT22;32646;50.958;6.258;2022-09-02T09:07:16;26.40;72.30
46898;DHT22;32646;50.958;6.258;2022-09-02T09:15:31;26.50;72.00
46898;DHT22;32646;50.958;6.258;2022-09-02T09:18:06;26.70;71.80
46898;DHT22;32646;50.958;6.258;2022-09-02T09:20:36;26.80;72.40
46898;DHT22;32646;50.958;6.258;2022-09-02T09:23:24;26.80;70.10
46898;DHT22;32646;50.958;6.258;2022-09-02T09:25:58;26.80;70.60
46898;DHT22;32646;50.958;6.258;2022-09-02T09:28:30;26.80;70.50
46898;DHT22;32646;50.958;6.258;2022-09-02T09:30:59;26.90;71.00
46898;DHT22;32646;50.958;6.258;2022-09-02T09:33:26;26.70;69.40
46898;DHT22;32646;50.958;6.258;2022-09-02T09:35:53;26.60;71.30
46898;DHT22;32646;50.958;6.258;2022-09-02T09:38:32;26.90;71.10
46898;DHT22;32646;50.958;6.258;2022-09-02T09:41:20;27.30;71.00
46898;DHT22;32646;50.958;6.258;2022-09-02T09:43:47;27.60;71.00
46898;DHT22;32646;50.958;6.258;2022-09-02T09:46:40;28.10;70.50
46898;DHT22;32646;50.958;6.258;2022-09-02T09:49:06;28.40;68.60
46898;DHT22;32646;50.958;6.258;2022-09-02T09:51:36;27.80;68.20
46898;DHT22;32646;50.958;6.258;2022-09-02T09:54:16;27.80;68.60
46898;DHT22;32646;50.958;6.258;2022-09-02T09:56:43;28.00;68.20
46898;DHT22;32646;50.958;6.258;2022-09-02T09:59:40;28.10;66.40
46898;DHT22;32646;50.958;6.258;2022-09-02T10:02:22;28.10;67.70
46898;DHT22;32646;50.958;6.258;2022-09-02T10:04:52;27.90;66.50
46898;DHT22;32646;50.958;6.258;2022-09-02T10:07:39;27.60;66.70
46898;DHT22;32646;50.958;6.258;2022-09-02T10:10:20;27.90;67.40
46898;DHT22;32646;50.958;6.258;2022-09-02T10:12:49;27.90;65.90
46898;DHT22;32646;50.958;6.258;2022-09-02T10:15:37;27.80;65.50
46898;DHT22;32646;50.958;6.258;2022-09-02T10:18:19;28.10;65.80
46898;DHT22;32646;50.958;6.258;2022-09-02T10:26:53;27.90;66.80
46898;DHT22;32646;50.958;6.258;2022-09-02T10:30:26;28.50;64.50
46898;DHT22;32646;50.958;6.258;2022-09-02T10:41:00;28.20;63.80
46898;DHT22;32646;50.958;6.258;2022-09-02T10:46:20;28.70;63.80
46898;DHT22;32646;50.958;6.258;2022-09-02T10:49:02;28.20;62.40
46898;DHT22;32646;50.958;6.258;2022-09-02T10:51:34;28.00;62.30
46898;DHT22;32646;50.958;6.258;2022-09-02T10:54:24;28.20;62.20
46898;DHT22;32646;50.958;6.258;2022-09-02T10:57:00;27.90;62.10
46898;DHT22;32646;50.958;6.258;2022-09-02T10:59:36;27.90;63.70
46898;DHT22;32646;50.958;6.258;2022-09-02T11:02:19;28.10;63.00
46898;DHT22;32646;50.958;6.258;2022-09-02T11:04:52;28.10;62.80
46898;DHT22;32646;50.958;6.258;2022-09-02T11:07:29;28.30;63.60
46898;DHT22;32646;50.958;6.258;2022-09-02T11:10:02;28.60;62.50
46898;DHT22;32646;50.958;6.258;2022-09-02T11:12:35;29.20;61.80
46898;DHT22;32646;50.958;6.258;2022-09-02T11:20:59;29.80;60.50
46898;DHT22;32646;50.958;6.258;2022-09-02T11:23:42;29.70;61.40
46898;DHT22;32646;50.958;6.258;2022-09-02T11:26:18;29.40;61.40
46898;DHT22;32646;50.958;6.258;2022-09-02T11:29:13;29.60;63.10
46898;DHT22;32646;50.958;6.258;2022-09-02T11:34:40;29.50;60.50
46898;DHT22;32646;50.958;6.258;2022-09-02T11:37:11;29.30;60.00
46898;DHT22;32646;50.958;6.258;2022-09-02T11:39:48;29.50;60.50
46898;DHT22;32646;50.958;6.258;2022-09-02T11:42:44;29.60;60.10
46898;DHT22;32646;50.958;6.258;2022-09-02T11:53:34;29.50;59.20
46898;DHT22;32646;50.958;6.258;2022-09-02T11:56:16;29.50;60.00
46898;DHT22;32646;50.958;6.258;2022-09-02T11:58:47;29.80;60.30
46898;DHT22;32646;50.958;6.258;2022-09-02T12:09:49;29.70;58.20
46898;DHT22;32646;50.958;6.258;2022-09-02T12:23:05;29.90;58.00
46898;DHT22;32646;50.958;6.258;2022-09-02T12:25:33;30.20;57.60
46898;DHT22;32646;50.958;6.258;2022-09-02T12:28:25;30.20;57.00
46898;DHT22;32646;50.958;6.258;2022-09-02T12:33:39;30.40;57.00
46898;DHT22;32646;50.958;6.258;2022-09-02T12:36:08;30.60;56.80
46898;DHT22;32646;50.958;6.258;2022-09-02T12:38:39;30.00;57.30
46898;DHT22;32646;50.958;6.258;2022-09-02T12:41:08;30.00;57.40
46898;DHT22;32646;50.958;6.258;2022-09-02T12:52:02;30.80;56.90
46898;DHT22;32646;50.958;6.258;2022-09-02T12:57:02;31.40;57.00
46898;DHT22;32646;50.958;6.258;2022-09-02T12:59:35;31.20;56.60
46898;DHT22;32646;50.958;6.258;2022-09-02T13:02:25;30.90;57.40
46898;DHT22;32646;50.958;6.258;2022-09-02T13:05:18;29.90;57.00
46898;DHT22;32646;50.958;6.258;2022-09-02T13:19:26;30.80;58.00
46898;DHT22;32646;50.958;6.258;2022-09-02T13:33:32;30.30;57.70
46898;DHT22;32646;50.958;6.258;2022-09-02T13:35:59;30.00;57.50
46898;DHT22;32646;50.958;6.258;2022-09-02T13:38:27;30.50;57.50
46898;DHT22;32646;50.958;6.258;2022-09-02T13:40:54;30.40;56.90
46898;DHT22;32646;50.958;6.258;2022-09-02T13:43:23;30.20;59.20
46898;DHT22;32646;50.958;6.258;2022-09-02T13:45:51;30.10;56.40
46898;DHT22;32646;50.958;6.258;2022-09-02T13:48:29;30.30;58.20
46898;DHT22;32646;50.958;6.258;2022-09-02T13:51:01;30.30;56.20
46898;DHT22;32646;50.958;6.258;2022-09-02T13:53:36;30.00;56.90
46898;DHT22;32646;50.958;6.258;2022-09-02T13:56:24;30.10;56.90
46898;DHT22;32646;50.958;6.258;2022-09-02T13:58:54;30.00;56.20
46898;DHT22;32646;50.958;6.258;2022-09-02T14:01:47;29.80;56.60
46898;DHT22;32646;50.958;6.258;2022-09-02T14:04:15;30.30;57.40
46898;DHT22;32646;50.958;6.258;2022-09-02T14:06:45;29.90;57.40
46898;DHT22;32646;50.958;6.258;2022-09-02T14:09:27;29.90;57.60
46898;DHT22;32646;50.958;6.258;2022-09-02T14:11:57;30.30;58.30
46898;DHT22;32646;50.958;6.258;2022-09-02T14:14:25;30.30;56.50
46898;DHT22;32646;50.958;6.258;2022-09-02T14:19:45;29.90;57.10
46898;DHT22;32646;50.958;6.258;2022-09-02T14:22:32;29.80;56.50
46898;DHT22;32646;50.958;6.258;2022-09-02T14:24:59;29.80;56.90
46898;DHT22;32646;50.958;6.258;2022-09-02T14:27:26;29.90;56.90
46898;DHT22;32646;50.958;6.258;2022-09-02T14:29:57;30.10;56.70
46898;DHT22;32646;50.958;6.258;2022-09-02T14:32:26;29.60;56.70
46898;DHT22;32646;50.958;6.258;2022-09-02T14:35:18;29.70;57.40
46898;DHT22;32646;50.958;6.258;2022-09-02T14:40:32;29.50;55.90
46898;DHT22;32646;50.958;6.258;2022-09-02T14:43:00;29.60;56.50
46898;DHT22;32646;50.958;6.258;2022-09-02T14:45:32;29.20;57.00
46898;DHT22;32646;50.958;6.258;2022-09-02T14:48:11;29.30;56.30
46898;DHT22;32646;50.958;6.258;2022-09-02T14:50:42;29.50;57.40
46898;DHT22;32646;50.958;6.258;2022-09-02T14:53:09;29.60;56.90
46898;DHT22;32646;50.958;6.258;2022-09-02T14:58:13;29.40;57.00
46898;DHT22;32646;50.958;6.258;2022-09-02T15:00:40;29.20;55.90
46898;DHT22;32646;50.958;6.258;2022-09-02T15:03:07;28.80;55.90
46898;DHT22;32646;50.958;6.258;2022-09-02T15:05:33;28.80;56.70
46898;DHT22;32646;50.958;6.258;2022-09-02T15:08:00;28.60;56.30
46898;DHT22;32646;50.958;6.258;2022-09-02T15:10:28;28.70;56.80
46898;DHT22;32646;50.958;6.258;2022-09-02T15:12:55;28.60;56.40
46898;DHT22;32646;50.958;6.258;2022-09-02T15:15:22;28.60;56.70
46898;DHT22;32646;50.958;6.258;2022-09-02T15:17:49;28.50;56.20
46898;DHT22;32646;50.958;6.258;2022-09-02T15:20:16;28.50;56.70
46898;DHT22;32646;50.958;6.258;2022-09-02T15:22:43;28.60;56.70
46898;DHT22;32646;50.958;6.258;2022-09-02T15:25:10;28.60;56.10
46898;DHT22;32646;50.958;6.258;2022-09-02T15:27:37;28.60;56.70
46898;DHT22;32646;50.958;6.258;2022-09-02T15:30:08;28.60;56.90
46898;DHT22;32646;50.958;6.258;2022-09-02T15:32:36;28.60;57.00
46898;DHT22;32646;50.958;6.258;2022-09-02T15:35:04;28.40;56.50
46898;DHT22;32646;50.958;6.258;2022-09-02T15:37:31;28.10;56.00
46898;DHT22;32646;50.958;6.258;2022-09-02T15:40:03;27.90;57.30
46898;DHT22;32646;50.958;6.258;2022-09-02T15:42:33;28.20;57.90
46898;DHT22;32646;50.958;6.258;2022-09-02T15:45:00;28.30;57.00
46898;DHT22;32646;50.958;6.258;2022-09-02T15:47:28;28.30;57.40
46898;DHT22;32646;50.958;6.258;2022-09-02T15:49:55;27.80;56.20
46898;DHT22;32646;50.958;6.258;2022-09-02T15:52:23;27.60;57.60
46898;DHT22;32646;50.958;6.258;2022-09-02T15:54:52;27.70;57.90
46898;DHT22;32646;50.958;6.258;2022-09-02T15:57:19;27.80;56.40
46898;DHT22;32646;50.958;6.258;2022-09-02T15:59:46;27.90;56.80
46898;DHT22;32646;50.958;6.258;2022-09-02T16:02:13;28.00;57.90
46898;DHT22;32646;50.958;6.258;2022-09-02T16:04:40;27.80;56.60
46898;DHT22;32646;50.958;6.258;2022-09-02T16:07:07;27.60;56.80
46898;DHT22;32646;50.958;6.258;2022-09-02T16:09:33;27.40;57.80
46898;DHT22;32646;50.958;6.258;2022-09-02T16:12:00;27.00;57.00
46898;DHT22;32646;50.958;6.258;2022-09-02T16:14:26;27.10;57.70
46898;DHT22;32646;50.958;6.258;2022-09-02T16:16:54;27.10;57.60
46898;DHT22;32646;50.958;6.258;2022-09-02T16:19:22;27.10;58.10
46898;DHT22;32646;50.958;6.258;2022-09-02T16:21:50;26.90;58.00
46898;DHT22;32646;50.958;6.258;2022-09-02T16:24:17;26.80;58.50
46898;DHT22;32646;50.958;6.258;2022-09-02T16:26:44;26.70;58.00
46898;DHT22;32646;50.958;6.258;2022-09-02T16:29:13;26.60;57.70
46898;DHT22;32646;50.958;6.258;2022-09-02T16:31:43;26.50;58.40
46898;DHT22;32646;50.958;6.258;2022-09-02T16:34:22;26.50;59.00
46898;DHT22;32646;50.958;6.258;2022-09-02T16:36:49;26.20;58.10
46898;DHT22;32646;50.958;6.258;2022-09-02T16:39:17;26.30;58.60
46898;DHT22;32646;50.958;6.258;2022-09-02T16:41:49;26.20;57.90
46898;DHT22;32646;50.958;6.258;2022-09-02T16:44:18;26.20;58.10
46898;DHT22;32646;50.958;6.258;2022-09-02T16:46:46;26.10;58.20
46898;DHT22;32646;50.958;6.258;2022-09-02T16:49:14;26.00;58.50
46898;DHT22;32646;50.958;6.258;2022-09-02T16:51:41;25.80;58.80
46898;DHT22;32646;50.958;6.258;2022-09-02T16:54:08;25.70;59.00
46898;DHT22;32646;50.958;6.258;2022-09-02T16:56:47;25.70;59.20
46898;DHT22;32646;50.958;6.258;2022-09-02T16:59:14;25.50;59.30
46898;DHT22;32646;50.958;6.258;2022-09-02T17:01:40;25.50;59.80
46898;DHT22;32646;50.958;6.258;2022-09-02T17:04:07;25.40;59.60
46898;DHT22;32646;50.958;6.258;2022-09-02T17:06:34;25.30;60.10
46898;DHT22;32646;50.958;6.258;2022-09-02T17:09:07;25.20;60.30
46898;DHT22;32646;50.958;6.258;2022-09-02T17:11:35;25.20;59.80
46898;DHT22;32646;50.958;6.258;2022-09-02T17:14:22;25.00;60.10
46898;DHT22;32646;50.958;6.258;2022-09-02T17:16:50;25.00;59.90
46898;DHT22;32646;50.958;6.258;2022-09-02T17:19:18;25.00;60.70
46898;DHT22;32646;50.958;6.258;2022-09-02T17:21:47;24.90;59.90
46898;DHT22;32646;50.958;6.258;2022-09-02T17:24:14;24.70;60.50
46898;DHT22;32646;50.958;6.258;2022-09-02T17:26:45;24.70;60.40
46898;DHT22;32646;50.958;6.258;2022-09-02T17:29:14;24.70;60.50
46898;DHT22;32646;50.958;6.258;2022-09-02T17:32:01;24.60;60.80
46898;DHT22;32646;50.958;6.258;2022-09-02T17:34:28;24.50;61.00